Time;durP1;ratioP1;P1;durP2;ratioP2;P2;SDS_P1;SDS_P2;PMS_P1;PMS_P2;Temp;Humidity;BMP_temperature;BMP_pressure;BME280_temperature;BME280_humidity;BME280_pressure;Samples;Min_cycle;Max_cycle;Signal;HPM_P1;HPM_P2
2022/01/12 00:00:29;;;;;;;4.03;3.85;;;;;;;-0.77;100.00;103165.66;4413320;32;20443;-72
2022/01/12 00:02:55;;;;;;;2.45;2.35;;;;;;;-0.91;100.00;103139.41;4412118;32;20076;-73
2022/01/12 00:05:20;;;;;;;2.60;2.50;;;;;;;-1.55;100.00;103088.16;4416241;32;20471;-74
2022/01/12 00:07:48;;;;;;;2.85;2.75;;;;;;;-0.83;100.00;103186.06;4418089;32;20261;-73
2022/01/12 00:10:13;;;;;;;2.60;2.50;;;;;;;-0.71;100.00;103183.91;4419734;32;21100;-72
2022/01/12 00:12:39;;;;;;;5.30;5.03;;;;;;;-0.73;100.00;103176.97;4423115;32;20128;-73
2022/01/12 00:15:05;;;;;;;2.30;2.20;;;;;;;-0.70;100.00;103171.91;4416950;32;20068;-72
2022/01/12 00:17:30;;;;;;;3.58;3.47;;;;;;;-0.75;100.00;103178.59;4416398;32;20095;-73
2022/01/12 00:19:55;;;;;;;2.50;2.40;;;;;;;-0.75;100.00;103176.03;4411537;32;20068;-73
2022/01/12 00:22:21;;;;;;;2.60;2.50;;;;;;;-1.81;100.00;103018.59;4414460;32;20646;-73
2022/01/12 00:35:34;;;;;;;4.10;3.90;;;;;;;-1.18;100.00;103161.59;4423847;32;20137;-72
2022/01/12 00:37:59;;;;;;;2.70;2.50;;;;;;;-1.41;100.00;103123.88;4417204;32;20080;-73
2022/01/12 00:40:25;;;;;;;3.00;2.90;;;;;;;-1.08;100.00;103187.78;4410505;32;20098;-73
2022/01/12 00:42:51;;;;;;;2.50;2.40;;;;;;;-1.27;100.00;103150.16;4413180;32;20083;-75
2022/01/12 00:45:18;;;;;;;2.40;2.30;;;;;;;-2.21;100.00;103007.69;4420673;32;21017;-73
2022/01/12 00:47:43;;;;;;;2.67;2.58;;;;;;;-1.10;100.00;103173.06;4412818;32;20182;-73
2022/01/12 00:50:09;;;;;;;2.92;2.83;;;;;;;-1.14;100.00;103164.38;4420045;32;20088;-73
2022/01/12 00:52:34;;;;;;;4.55;4.35;;;;;;;-1.14;100.00;103174.69;4415555;32;20668;-73
2022/01/12 00:54:59;;;;;;;2.33;2.22;;;;;;;-1.17;100.00;103190.00;4419239;32;20375;-74
2022/01/12 00:57:25;;;;;;;3.40;3.20;;;;;;;-1.21;100.00;103209.63;4416396;32;20134;-72
2022/01/12 00:59:50;;;;;;;2.50;2.40;;;;;;;-1.22;100.00;103212.19;4418183;32;20084;-72
2022/01/12 01:02:15;;;;;;;2.60;2.50;;;;;;;-1.24;100.00;103218.97;4412244;32;20071;-73
2022/01/12 01:04:41;;;;;;;2.92;2.83;;;;;;;-1.73;100.00;103137.28;4411361;32;20092;-72
2022/01/12 01:07:06;;;;;;;3.28;3.17;;;;;;;-2.10;100.00;103081.84;4411714;32;20156;-72
2022/01/12 01:09:34;;;;;;;4.18;3.97;;;;;;;-1.83;100.00;103121.47;4409022;32;20076;-73
2022/01/12 01:11:59;;;;;;;2.60;2.50;;;;;;;-1.36;100.00;103203.03;4415158;32;20056;-73
2022/01/12 01:14:46;;;;;;;4.18;3.92;;;;;;;-1.38;100.00;103200.41;4417345;32;20057;-73
2022/01/12 01:25:31;;;;;;;2.95;2.85;;;;;;;-1.43;100.00;103196.78;4425689;32;20170;-74
2022/01/12 01:27:56;;;;;;;2.72;2.62;;;;;;;-1.31;100.00;103229.84;4413072;32;20080;-72
2022/01/12 01:30:22;;;;;;;2.37;2.28;;;;;;;-1.25;100.00;103250.69;4404249;32;20068;-73
2022/01/12 01:32:48;;;;;;;3.20;2.90;;;;;;;-1.19;100.00;103250.91;4410479;32;20072;-73
2022/01/12 01:35:14;;;;;;;2.65;2.55;;;;;;;-1.30;100.00;103211.88;4407753;32;20516;-73
2022/01/12 01:37:41;;;;;;;4.15;3.95;;;;;;;-1.27;100.00;103227.44;4410362;32;20487;-73
2022/01/12 01:40:09;;;;;;;3.10;2.90;;;;;;;-1.08;100.00;103244.47;4409375;32;20827;-73
2022/01/12 01:53:38;;;;;;;4.07;3.87;;;;;;;-0.79;100.00;103262.69;4397238;32;20171;-74
2022/01/12 01:56:03;;;;;;;2.90;2.80;;;;;;;-0.75;100.00;103271.44;4410757;32;20060;-73
2022/01/12 01:58:28;;;;;;;6.37;3.97;;;;;;;-0.74;100.00;103270.59;4411436;32;20072;-72
2022/01/12 02:00:54;;;;;;;3.12;3.00;;;;;;;-0.71;100.00;103271.59;4399795;32;20077;-73
2022/01/12 02:03:19;;;;;;;2.95;2.85;;;;;;;-0.70;100.00;103275.94;4412229;32;20852;-72
2022/01/12 02:05:45;;;;;;;3.00;2.90;;;;;;;-0.68;100.00;103268.22;4403260;32;20072;-73
2022/01/12 02:08:10;;;;;;;2.47;2.37;;;;;;;-0.70;100.00;103277.63;4430613;32;20653;-73
2022/01/12 02:10:35;;;;;;;4.10;3.90;;;;;;;-0.68;100.00;103278.53;4409187;32;20079;-71
2022/01/12 02:13:01;;;;;;;2.70;2.60;;;;;;;-0.66;100.00;103292.38;4413709;32;20073;-72
2022/01/12 02:15:26;;;;;;;4.25;4.05;;;;;;;-0.71;100.00;103283.59;4422095;32;20415;-72
2022/01/12 02:18:13;;;;;;;2.70;2.60;;;;;;;-0.62;100.00;103291.69;4417339;32;21187;-72
2022/01/12 02:40:16;;;;;;;2.30;2.20;;;;;;;-0.62;100.00;103222.06;4415588;32;20064;-73
2022/01/12 02:42:45;;;;;;;2.40;2.30;;;;;;;-0.58;100.00;103235.91;4403054;32;20279;-72
2022/01/12 02:50:45;;;;;;;4.70;4.50;;;;;;;-0.60;100.00;103225.56;4422110;32;20137;-73
2022/01/12 02:55:55;;;;;;;2.50;2.40;;;;;;;-0.61;100.00;103228.97;4425792;32;20189;-74
2022/01/12 02:58:21;;;;;;;2.90;2.80;;;;;;;-0.61;100.00;103258.19;4409481;32;20095;-73
2022/01/12 03:01:06;;;;;;;2.50;2.40;;;;;;;-0.62;100.00;103240.13;4408497;32;20642;-75
2022/01/12 03:03:35;;;;;;;4.65;4.40;;;;;;;-0.69;100.00;103238.12;4404408;32;20069;-72
2022/01/12 03:06:04;;;;;;;2.40;2.30;;;;;;;-0.83;100.00;103241.09;4406652;32;20060;-73
2022/01/12 03:08:36;;;;;;;4.12;3.92;;;;;;;-0.84;100.00;103253.94;4409774;32;20095;-72
2022/01/12 03:11:01;;;;;;;2.50;2.40;;;;;;;-0.91;100.00;103250.25;4407463;32;20086;-73
2022/01/12 03:13:27;;;;;;;4.03;3.83;;;;;;;-0.96;100.00;103254.38;4413371;32;20462;-73
2022/01/12 03:15:52;;;;;;;2.60;2.50;;;;;;;-1.27;100.00;103209.41;4407177;32;20088;-72
2022/01/12 03:18:18;;;;;;;2.40;2.30;;;;;;;-1.59;100.00;103151.53;4408691;32;20075;-72
2022/01/12 03:20:45;;;;;;;2.50;2.40;;;;;;;-1.06;100.00;103245.41;4413327;32;20076;-73
2022/01/12 03:23:11;;;;;;;2.40;2.30;;;;;;;-1.11;100.00;103230.59;4416189;32;20076;-73
2022/01/12 03:25:36;;;;;;;2.50;2.40;;;;;;;-1.31;100.00;103191.22;4413540;32;20119;-76
2022/01/12 03:28:05;;;;;;;2.30;2.20;;;;;;;-1.00;100.00;103234.47;4420823;32;20096;-73
2022/01/12 03:30:37;;;;;;;2.60;2.50;;;;;;;-1.04;100.00;103220.56;4412424;32;20087;-73
2022/01/12 03:33:20;;;;;;;2.53;2.43;;;;;;;-0.90;100.00;103226.22;4418293;32;20088;-73
2022/01/12 04:09:04;;;;;;;2.42;2.33;;;;;;;-0.44;100.00;103275.97;4453614;32;20062;-73
2022/01/12 04:11:29;;;;;;;3.65;3.55;;;;;;;-0.82;100.00;103211.03;4408051;32;20068;-73
2022/01/12 04:13:55;;;;;;;2.50;2.40;;;;;;;-0.37;100.00;103275.34;4405195;32;20077;-73
2022/01/12 04:16:20;;;;;;;2.50;2.40;;;;;;;-0.33;100.00;103273.78;4414078;32;20100;-73
2022/01/12 04:18:46;;;;;;;2.80;2.70;;;;;;;-0.32;100.00;103273.84;4407232;32;20068;-73
2022/01/12 04:21:12;;;;;;;2.40;2.30;;;;;;;-0.36;100.00;103277.13;4415289;32;20087;-74
2022/01/12 04:23:38;;;;;;;3.97;3.83;;;;;;;-0.33;100.00;103281.50;4405606;32;20076;-72
2022/01/12 04:26:12;;;;;;;3.17;3.00;;;;;;;-0.31;100.00;103275.56;4410429;32;20214;-72
2022/01/12 04:28:44;;;;;;;4.03;3.85;;;;;;;-0.26;100.00;103275.72;4426882;32;20114;-73
2022/01/12 04:31:09;;;;;;;2.47;2.37;;;;;;;-0.23;100.00;103281.88;4414064;32;20586;-72
2022/01/12 04:33:36;;;;;;;4.25;4.05;;;;;;;-0.23;100.00;103283.59;4410382;32;20204;-73
2022/01/12 04:36:01;;;;;;;2.55;2.45;;;;;;;-1.19;100.00;103113.50;4418289;32;20569;-72
2022/01/12 04:38:30;;;;;;;3.75;3.60;;;;;;;-0.20;100.00;103275.97;4416780;32;20056;-71
2022/01/12 04:40:55;;;;;;;4.10;3.78;;;;;;;-0.16;100.00;103270.06;4415276;32;20068;-73
2022/01/12 04:43:22;;;;;;;2.35;2.25;;;;;;;-0.14;100.00;103268.41;4409296;32;20598;-73
2022/01/12 04:50:43;;;;;;;3.33;3.22;;;;;;;-0.13;100.00;103277.91;4428675;32;21302;-73
2022/01/12 04:53:08;;;;;;;2.50;2.40;;;;;;;-0.10;100.00;103265.12;4414443;32;20598;-73
2022/01/12 04:55:33;;;;;;;4.15;3.95;;;;;;;-0.42;100.00;103204.69;4406112;32;20084;-74
2022/01/12 04:57:59;;;;;;;2.70;2.60;;;;;;;-1.24;100.00;103070.41;4423957;32;20064;-73
2022/01/12 05:00:25;;;;;;;2.72;2.62;;;;;;;-0.07;100.00;103264.31;4414354;32;20091;-73
2022/01/12 05:13:39;;;;;;;4.35;4.15;;;;;;;-0.11;100.00;103284.00;4423529;32;20175;-72
2022/01/12 05:16:05;;;;;;;2.67;2.58;;;;;;;-0.15;100.00;103274.37;4427526;32;20084;-75
2022/01/12 05:18:31;;;;;;;4.15;3.95;;;;;;;0.01;100.00;103299.00;4408652;32;20061;-74
2022/01/12 05:20:57;;;;;;;2.55;2.45;;;;;;;0.04;100.00;103298.22;4411136;32;20076;-73
2022/01/12 05:23:22;;;;;;;2.75;2.65;;;;;;;-0.07;100.00;103285.84;4410630;32;20068;-73
2022/01/12 05:25:48;;;;;;;3.00;2.90;;;;;;;0.06;100.00;103301.75;4409919;32;21261;-73
2022/01/12 05:28:14;;;;;;;2.80;2.70;;;;;;;0.06;100.00;103297.47;4426340;32;20080;-72
2022/01/12 05:30:39;;;;;;;4.30;4.10;;;;;;;-0.30;100.00;103240.31;4408168;32;20665;-73
2022/01/12 05:33:05;;;;;;;2.78;2.67;;;;;;;0.06;100.00;103301.75;4412153;32;20072;-72
2022/01/12 05:35:34;;;;;;;4.35;4.15;;;;;;;0.04;100.00;103295.66;4403949;32;20163;-74
2022/01/12 05:38:00;;;;;;;3.10;3.00;;;;;;;0.04;100.00;103301.72;4412984;32;20097;-73
2022/01/12 05:40:25;;;;;;;3.30;3.15;;;;;;;-0.04;100.00;103295.38;4414279;32;20067;-73
2022/01/12 05:42:51;;;;;;;3.00;2.90;;;;;;;-0.19;100.00;103274.25;4413573;32;20567;-73
2022/01/12 05:45:18;;;;;;;2.50;2.40;;;;;;;0.04;100.00;103303.41;4408684;32;20179;-72
2022/01/12 05:50:10;;;;;;;2.80;2.70;;;;;;;0.08;100.00;103305.25;4423348;32;20228;-73
2022/01/12 05:52:35;;;;;;;4.85;4.60;;;;;;;0.05;100.00;103300.00;4411399;32;20072;-72
2022/01/12 05:55:02;;;;;;;3.00;2.90;;;;;;;0.06;100.00;103299.16;4418339;32;20064;-73
2022/01/12 05:57:29;;;;;;;5.25;4.90;;;;;;;0.07;100.00;103301.81;4407466;32;20159;-73
2022/01/12 05:59:55;;;;;;;2.70;2.60;;;;;;;0.09;100.00;103294.13;4413038;32;20080;-73
2022/01/12 06:02:21;;;;;;;2.70;2.60;;;;;;;0.10;100.00;103288.09;4408423;32;20078;-73
2022/01/12 06:04:46;;;;;;;2.35;2.25;;;;;;;0.09;100.00;103300.16;4409028;32;20072;-73
2022/01/12 06:07:11;;;;;;;2.97;2.85;;;;;;;0.01;100.00;103288.69;4424741;32;20712;-73
2022/01/12 06:09:37;;;;;;;4.35;4.15;;;;;;;0.08;100.00;103303.56;4400610;32;20068;-74
2022/01/12 06:12:02;;;;;;;2.50;2.40;;;;;;;-0.36;100.00;103219.47;4414160;32;20069;-73
2022/01/12 06:14:28;;;;;;;3.10;3.00;;;;;;;0.07;100.00;103298.34;4410581;32;20494;-72
2022/01/12 06:16:53;;;;;;;2.60;2.50;;;;;;;-0.03;100.00;103285.13;4410122;32;20185;-73
2022/01/12 06:19:18;;;;;;;2.50;2.40;;;;;;;-0.02;100.00;103286.00;4409228;32;20631;-72
2022/01/12 06:21:44;;;;;;;2.50;2.40;;;;;;;-0.07;100.00;103292.72;4410640;32;21797;-72
2022/01/12 06:24:09;;;;;;;2.55;2.45;;;;;;;-0.13;100.00;103285.66;4414235;32;20064;-73
2022/01/12 06:26:36;;;;;;;4.30;4.10;;;;;;;-0.20;100.00;103283.69;4422604;32;20078;-72
2022/01/12 06:31:37;;;;;;;4.12;3.92;;;;;;;-0.32;100.00;103303.88;4420841;32;20342;-72
2022/01/12 06:34:02;;;;;;;2.20;2.10;;;;;;;-0.35;100.00;103302.09;4420135;32;20145;-73
2022/01/12 06:36:28;;;;;;;3.60;3.45;;;;;;;-0.46;100.00;103287.94;4421306;32;20079;-73
2022/01/12 06:38:53;;;;;;;2.40;2.30;;;;;;;-0.37;100.00;103300.28;4403104;32;20079;-73
2022/01/12 06:41:19;;;;;;;3.30;3.10;;;;;;;-0.38;100.00;103298.53;4410407;32;20064;-73
2022/01/12 06:43:44;;;;;;;3.20;3.10;;;;;;;-0.41;100.00;103294.13;4407852;32;20144;-73
2022/01/12 06:46:09;;;;;;;2.83;2.72;;;;;;;-0.41;100.00;103301.88;4410812;32;20079;-74
2022/01/12 06:48:35;;;;;;;4.12;3.92;;;;;;;-0.42;100.00;103307.87;4415738;32;20879;-72
2022/01/12 06:51:00;;;;;;;2.20;2.10;;;;;;;-0.44;100.00;103310.41;4412609;32;20079;-73
2022/01/12 06:53:26;;;;;;;2.50;2.40;;;;;;;-0.45;100.00;103307.75;4413965;32;20455;-73
2022/01/12 06:55:51;;;;;;;3.03;2.92;;;;;;;-0.44;100.00;103310.41;4410152;32;20068;-73
2022/01/12 06:58:16;;;;;;;2.80;2.70;;;;;;;-0.89;100.00;103235.72;4413757;32;20055;-74
2022/01/12 07:00:42;;;;;;;2.60;2.50;;;;;;;-0.42;100.00;103313.91;4408728;32;20247;-74
2022/01/12 07:03:07;;;;;;;3.12;2.92;;;;;;;-0.40;100.00;103337.19;4408988;32;20650;-73
2022/01/12 07:05:33;;;;;;;4.35;4.15;;;;;;;-0.37;100.00;103315.78;4409921;32;20154;-73
2022/01/12 07:07:58;;;;;;;2.70;2.60;;;;;;;-0.44;100.00;103309.50;4408564;32;20197;-73
2022/01/12 07:10:24;;;;;;;3.65;3.50;;;;;;;-0.35;100.00;103327.03;4412059;32;20573;-73
2022/01/12 07:12:49;;;;;;;2.75;2.65;;;;;;;-0.24;100.00;103346.31;4408429;32;20471;-74
2022/01/12 07:15:15;;;;;;;2.80;2.70;;;;;;;-0.26;100.00;103340.22;4421888;32;20060;-73
2022/01/12 07:17:40;;;;;;;3.58;3.47;;;;;;;-0.15;100.00;103356.09;4412656;32;20130;-73
2022/01/12 07:20:06;;;;;;;2.42;2.33;;;;;;;-0.10;100.00;103360.62;4409743;32;20087;-74
2022/01/12 07:22:31;;;;;;;2.60;2.50;;;;;;;-0.06;100.00;103359.00;4412851;32;20261;-73
2022/01/12 07:24:57;;;;;;;2.67;2.58;;;;;;;-0.12;100.00;103346.78;4406836;32;20628;-73
2022/01/12 07:27:22;;;;;;;2.55;2.45;;;;;;;-1.42;100.00;103137.59;4409950;32;20734;-74
2022/01/12 07:29:47;;;;;;;2.78;2.67;;;;;;;0.06;100.00;103368.87;4407067;32;20069;-73
2022/01/12 07:32:13;;;;;;;2.50;2.40;;;;;;;-0.13;100.00;103333.81;4412265;32;20073;-74
2022/01/12 07:34:38;;;;;;;4.25;4.05;;;;;;;-0.43;100.00;103276.03;4417183;32;20150;-74
2022/01/12 07:37:05;;;;;;;3.20;3.10;;;;;;;0.18;100.00;103380.50;4413089;32;20083;-74
2022/01/12 07:39:31;;;;;;;5.20;5.00;;;;;;;-0.32;100.00;103288.41;4411291;32;20084;-74
2022/01/12 07:41:56;;;;;;;3.00;2.90;;;;;;;0.25;100.00;103391.91;4410294;32;20638;-73
2022/01/12 07:44:21;;;;;;;2.67;2.58;;;;;;;-0.17;100.00;103334.53;4414089;32;20072;-74
2022/01/12 07:46:47;;;;;;;3.00;2.90;;;;;;;-1.15;100.00;103169.47;4409485;32;20107;-75
2022/01/12 07:49:12;;;;;;;2.80;2.70;;;;;;;0.33;100.00;103423.19;4412554;32;21768;-73
2022/01/12 07:51:38;;;;;;;4.07;3.87;;;;;;;0.33;100.00;103429.22;4409252;32;20082;-74
2022/01/12 07:54:03;;;;;;;2.90;2.80;;;;;;;0.37;100.00;103432.78;4410181;32;20585;-73
2022/01/12 07:56:28;;;;;;;4.87;4.68;;;;;;;0.26;100.00;103406.59;4406696;32;20094;-73
2022/01/12 07:58:54;;;;;;;3.00;2.90;;;;;;;-0.01;100.00;103355.75;4409303;32;20582;-75
2022/01/12 08:01:19;;;;;;;2.70;2.60;;;;;;;0.43;100.00;103425.25;4406741;32;20590;-73
2022/01/12 08:03:44;;;;;;;2.80;2.70;;;;;;;0.48;100.00;103430.56;4410578;32;20088;-72
2022/01/12 08:06:10;;;;;;;3.28;3.17;;;;;;;0.53;100.00;103431.59;4409841;32;20078;-73
2022/01/12 08:08:35;;;;;;;4.85;4.65;;;;;;;0.54;100.00;103442.00;4404738;32;20088;-73
2022/01/12 08:11:00;;;;;;;3.00;2.90;;;;;;;-0.06;100.00;103335.75;4410411;32;20086;-73
2022/01/12 08:13:26;;;;;;;4.37;4.18;;;;;;;0.59;100.00;103442.16;4405141;32;20072;-74
2022/01/12 08:15:51;;;;;;;3.20;3.10;;;;;;;0.62;100.00;103439.66;4410858;32;20161;-73
2022/01/12 08:18:17;;;;;;;3.10;3.00;;;;;;;-0.15;100.00;103300.19;4402109;32;20608;-76
2022/01/12 08:20:43;;;;;;;2.90;2.80;;;;;;;0.71;100.00;103434.78;4404824;32;20696;-76
2022/01/12 08:23:08;;;;;;;3.33;3.22;;;;;;;0.75;100.00;103428.03;4407915;32;20064;-75
2022/01/12 08:25:36;;;;;;;4.85;4.57;;;;;;;0.60;100.00;103387.03;4400985;32;20096;-74
2022/01/12 08:28:03;;;;;;;2.85;2.75;;;;;;;0.84;99.89;103420.56;4408168;32;20230;-75
2022/01/12 08:30:31;;;;;;;4.37;4.18;;;;;;;0.89;100.00;103423.31;4402609;32;20161;-74
2022/01/12 08:32:56;;;;;;;3.05;2.95;;;;;;;0.93;99.70;103430.31;4397710;32;20108;-77
2022/01/12 08:35:21;;;;;;;2.58;2.47;;;;;;;-0.36;99.84;103230.69;4407341;32;20072;-75
2022/01/12 08:37:47;;;;;;;3.10;3.00;;;;;;;0.90;98.85;103428.53;4405982;32;20766;-76
2022/01/12 08:40:13;;;;;;;2.60;2.50;;;;;;;0.56;98.87;103370.59;4412437;32;20319;-74
2022/01/12 08:42:38;;;;;;;4.28;4.07;;;;;;;0.99;97.97;103448.62;4421323;32;20069;-77
2022/01/12 08:45:04;;;;;;;3.08;2.97;;;;;;;0.98;97.81;103459.78;4401550;32;20345;-74
2022/01/12 08:47:30;;;;;;;4.78;4.55;;;;;;;0.96;97.67;103458.84;4405950;32;20605;-75
2022/01/12 08:49:55;;;;;;;2.70;2.60;;;;;;;0.95;97.07;103459.69;4406603;32;20076;-76
2022/01/12 08:52:22;;;;;;;2.92;2.72;;;;;;;0.00;97.17;103317.94;4408784;32;20064;-76
2022/01/12 08:54:48;;;;;;;3.10;3.00;;;;;;;0.47;96.82;103382.31;4408465;32;20537;-76
2022/01/12 08:57:13;;;;;;;2.58;2.47;;;;;;;0.70;96.97;103434.75;4408761;32;20072;-77
2022/01/12 08:59:38;;;;;;;4.18;3.97;;;;;;;1.10;97.54;103473.13;4421490;32;20714;-75
2022/01/12 09:02:06;;;;;;;3.20;3.10;;;;;;;1.15;97.52;103473.25;4406594;32;20550;-76
2022/01/12 09:04:31;;;;;;;4.95;4.75;;;;;;;1.20;97.22;103484.63;4407874;32;20170;-75
2022/01/12 09:06:57;;;;;;;3.00;2.90;;;;;;;1.23;97.52;103501.97;4405025;32;20068;-75
2022/01/12 09:09:24;;;;;;;2.78;2.67;;;;;;;1.26;97.23;103497.75;4403907;32;20842;-75
2022/01/12 09:11:50;;;;;;;3.80;3.70;;;;;;;1.27;96.68;103501.22;4409756;32;20139;-75
2022/01/12 09:14:15;;;;;;;2.80;2.70;;;;;;;0.71;96.92;103416.72;4404056;32;20072;-74
2022/01/12 09:16:40;;;;;;;4.03;3.83;;;;;;;1.34;96.94;103505.75;4401825;32;20158;-75
2022/01/12 09:19:06;;;;;;;3.70;3.50;;;;;;;1.28;97.28;103477.97;4407986;32;20084;-74
2022/01/12 09:21:31;;;;;;;4.12;3.92;;;;;;;1.25;97.20;103470.13;4404317;32;20073;-74
2022/01/12 09:23:56;;;;;;;3.00;2.90;;;;;;;1.11;97.26;103441.25;4399168;32;20342;-74
2022/01/12 09:26:22;;;;;;;3.12;3.03;;;;;;;1.19;96.86;103457.00;4408189;32;20077;-75
2022/01/12 09:28:48;;;;;;;3.22;3.08;;;;;;;1.40;96.67;103493.00;4399606;32;20088;-75
2022/01/12 09:31:14;;;;;;;3.58;3.28;;;;;;;1.20;96.46;103461.34;4403134;32;20106;-74
2022/01/12 09:33:39;;;;;;;4.55;4.35;;;;;;;1.51;96.75;103509.75;4417210;32;20630;-76
2022/01/12 09:36:04;;;;;;;2.75;2.65;;;;;;;1.54;96.78;103509.84;4410022;32;20652;-75
2022/01/12 09:38:30;;;;;;;4.70;4.50;;;;;;;1.30;96.68;103455.62;4402995;32;20072;-77
2022/01/12 09:40:55;;;;;;;3.08;2.97;;;;;;;1.56;96.67;103508.19;4421476;32;20081;-73
2022/01/12 09:43:25;;;;;;;3.72;3.53;;;;;;;0.41;96.31;103313.25;4412758;32;20608;-73
2022/01/12 09:45:53;;;;;;;2.85;2.75;;;;;;;1.66;96.94;103526.56;4407620;32;20276;-73
2022/01/12 09:48:19;;;;;;;3.00;2.90;;;;;;;1.32;96.61;103460.84;4399993;32;20138;-75
2022/01/12 09:50:45;;;;;;;3.53;3.42;;;;;;;1.63;96.22;103516.16;4423415;32;20510;-73
2022/01/12 09:53:10;;;;;;;3.40;3.30;;;;;;;1.54;96.13;103512.44;4410860;32;20084;-73
2022/01/12 09:55:36;;;;;;;5.05;4.85;;;;;;;1.61;96.19;103504.87;4412404;32;20068;-75
2022/01/12 09:58:02;;;;;;;2.78;2.67;;;;;;;1.26;96.74;103432.19;4424366;32;20112;-75
2022/01/12 10:00:27;;;;;;;4.45;4.25;;;;;;;1.83;96.57;103525.38;4403184;32;20412;-75
2022/01/12 10:02:53;;;;;;;3.58;3.47;;;;;;;1.88;96.58;103490.13;4411534;32;20064;-75
2022/01/12 10:05:18;;;;;;;3.20;3.10;;;;;;;1.98;96.26;103506.81;4408938;32;20095;-77
2022/01/12 10:07:43;;;;;;;3.05;2.90;;;;;;;2.06;96.09;103501.84;4406485;32;20088;-74
2022/01/12 10:10:14;;;;;;;3.00;2.90;;;;;;;2.12;96.21;103507.22;4409301;32;20754;-74
2022/01/12 10:12:39;;;;;;;4.80;4.60;;;;;;;1.81;95.46;103458.84;4394983;32;20061;-73
2022/01/12 10:15:10;;;;;;;3.00;2.90;;;;;;;2.16;94.89;103509.03;4411767;32;20125;-74
2022/01/12 10:17:44;;;;;;;4.65;4.45;;;;;;;2.09;94.15;103513.19;4409378;32;20092;-73
2022/01/12 10:20:12;;;;;;;2.70;2.60;;;;;;;1.74;93.96;103468.13;4404937;32;20088;-72
2022/01/12 10:22:38;;;;;;;4.43;4.22;;;;;;;1.57;93.88;103410.72;4409095;32;20087;-73
2022/01/12 10:25:19;;;;;;;3.08;2.97;;;;;;;2.19;93.81;103509.16;4421683;32;20160;-73
2022/01/12 10:27:45;;;;;;;3.85;3.60;;;;;;;2.19;93.95;103491.88;4399370;32;20143;-75
2022/01/12 10:30:21;;;;;;;2.90;2.80;;;;;;;1.85;94.33;103414.09;4409013;32;20089;-75
2022/01/12 10:32:46;;;;;;;2.92;2.83;;;;;;;2.40;94.22;103495.88;4405543;32;20064;-72
2022/01/12 10:35:12;;;;;;;2.92;2.83;;;;;;;2.43;94.13;103500.28;4413915;32;20079;-73
2022/01/12 10:37:37;;;;;;;4.53;4.32;;;;;;;2.50;93.59;103507.38;4412694;32;20935;-74
2022/01/12 10:40:03;;;;;;;3.40;3.30;;;;;;;2.51;93.55;103512.62;4410175;32;20384;-74
2022/01/12 10:42:28;;;;;;;15.65;5.20;;;;;;;2.52;93.58;103505.72;4408111;32;20372;-73
2022/01/12 10:45:01;;;;;;;2.90;2.80;;;;;;;2.55;93.23;103511.84;4410130;32;20060;-74
2022/01/12 10:47:29;;;;;;;4.18;3.87;;;;;;;2.46;92.83;103514.19;4401123;32;20092;-75
2022/01/12 10:49:54;;;;;;;2.97;2.87;;;;;;;2.49;92.75;103510.81;4409601;32;20095;-74
2022/01/12 10:52:19;;;;;;;3.10;3.00;;;;;;;2.48;93.06;103509.06;4435680;32;20624;-73
2022/01/12 10:54:46;;;;;;;3.90;3.70;;;;;;;2.47;92.98;103517.69;4405723;32;20525;-72
2022/01/12 10:57:15;;;;;;;2.70;2.60;;;;;;;2.54;93.21;103514.41;4408815;32;20076;-75
2022/01/12 10:59:41;;;;;;;3.80;3.70;;;;;;;2.61;93.44;103547.44;4421838;32;20308;-72
2022/01/12 11:02:06;;;;;;;2.95;2.85;;;;;;;2.60;93.49;103512.84;4407273;32;20076;-74
2022/01/12 11:04:31;;;;;;;4.57;4.37;;;;;;;2.52;93.32;103513.47;4409937;32;20348;-73
2022/01/12 11:06:57;;;;;;;3.92;3.75;;;;;;;2.52;93.63;103516.06;4407829;32;20095;-73
2022/01/12 11:09:23;;;;;;;3.00;2.90;;;;;;;2.31;94.37;103530.22;4410092;32;20064;-73
2022/01/12 11:11:48;;;;;;;3.20;3.10;;;;;;;1.34;95.08;103347.94;4408557;32;20555;-74
2022/01/12 11:14:14;;;;;;;2.92;2.83;;;;;;;2.28;95.92;103524.94;4427348;32;20064;-75
2022/01/12 11:16:39;;;;;;;4.65;4.45;;;;;;;1.72;96.75;103439.59;4404259;32;20251;-73
2022/01/12 11:19:04;;;;;;;3.05;2.95;;;;;;;1.65;97.90;103467.88;4411184;32;20973;-75
2022/01/12 11:21:34;;;;;;;4.90;4.65;;;;;;;1.94;98.92;103525.69;4406310;32;20083;-72
2022/01/12 11:24:00;;;;;;;2.97;2.87;;;;;;;2.01;99.08;103534.53;4421943;32;20095;-74
2022/01/12 11:26:28;;;;;;;3.83;3.67;;;;;;;1.94;99.65;103544.69;4406109;32;20068;-75
2022/01/12 11:28:53;;;;;;;3.42;3.25;;;;;;;1.99;100.00;103530.16;4411624;32;20076;-73
2022/01/12 11:31:30;;;;;;;3.00;2.90;;;;;;;1.92;100.00;103507.50;4407303;32;20102;-74
2022/01/12 11:33:55;;;;;;;3.00;2.90;;;;;;;1.90;100.00;103496.22;4424028;32;20064;-74
2022/01/12 11:36:27;;;;;;;2.78;2.67;;;;;;;1.62;100.00;103455.72;4408191;32;20637;-74
2022/01/12 11:39:00;;;;;;;2.90;2.80;;;;;;;1.86;100.00;103507.31;4428434;32;20171;-73
2022/01/12 11:41:28;;;;;;;7.03;4.25;;;;;;;1.95;100.00;103525.75;4405201;32;20060;-73
2022/01/12 11:43:54;;;;;;;3.05;2.95;;;;;;;1.94;100.00;103504.97;4408686;32;20080;-73
2022/01/12 11:46:24;;;;;;;2.85;2.75;;;;;;;2.12;100.00;103526.22;4427944;32;20248;-73
2022/01/12 11:48:54;;;;;;;2.90;2.80;;;;;;;2.12;100.00;103522.75;4410015;32;20187;-74
2022/01/12 11:51:21;;;;;;;2.90;2.80;;;;;;;2.15;100.00;103528.03;4435951;32;20076;-74
2022/01/12 11:53:55;;;;;;;3.15;3.05;;;;;;;2.05;100.00;103515.66;4405794;32;20216;-73
2022/01/12 11:56:25;;;;;;;2.90;2.80;;;;;;;1.24;100.00;103349.38;4404671;32;20075;-73
2022/01/12 11:58:51;;;;;;;2.78;2.67;;;;;;;1.88;100.00;103466.81;4413341;32;20056;-73
2022/01/12 12:01:17;;;;;;;4.32;4.12;;;;;;;2.00;100.00;103497.37;4423490;32;20148;-77
2022/01/12 12:03:42;;;;;;;3.42;3.33;;;;;;;2.22;100.00;103537.72;4407532;32;20513;-76
2022/01/12 12:06:19;;;;;;;3.67;3.47;;;;;;;2.23;100.00;103544.66;4411559;32;20858;-72
2022/01/12 12:08:57;;;;;;;3.10;3.00;;;;;;;2.18;100.00;103534.16;4421353;32;20472;-74
2022/01/12 12:11:25;;;;;;;2.70;2.60;;;;;;;2.22;100.00;103542.91;4433201;32;20153;-74
2022/01/12 12:13:50;;;;;;;2.80;2.70;;;;;;;1.52;100.00;103391.56;4413140;32;20174;-74
2022/01/12 12:16:16;;;;;;;3.53;3.35;;;;;;;2.36;100.00;103544.16;4409423;32;20469;-74
2022/01/12 12:18:41;;;;;;;3.53;3.42;;;;;;;1.33;100.00;103372.94;4420884;32;20065;-74
2022/01/12 12:21:07;;;;;;;4.05;3.85;;;;;;;2.16;100.00;103517.69;4414252;32;20084;-75
2022/01/12 12:23:32;;;;;;;4.32;4.12;;;;;;;2.01;100.00;103485.31;4405882;32;20605;-75
2022/01/12 12:25:59;;;;;;;3.00;2.90;;;;;;;2.32;100.00;103523.31;4411487;32;20080;-75
2022/01/12 12:28:25;;;;;;;3.62;3.47;;;;;;;2.24;100.00;103520.50;4411297;32;20582;-75
2022/01/12 12:30:50;;;;;;;2.75;2.65;;;;;;;2.32;100.00;103523.31;4411211;32;20064;-75
2022/01/12 12:33:16;;;;;;;5.10;4.85;;;;;;;2.44;100.00;103502.91;4407341;32;20557;-76
2022/01/12 12:35:43;;;;;;;4.12;3.92;;;;;;;2.25;100.00;103483.41;4410922;32;20317;-73
2022/01/12 12:38:10;;;;;;;2.75;2.65;;;;;;;2.12;100.00;103458.00;4415515;32;20497;-74
2022/01/12 12:40:37;;;;;;;5.05;4.85;;;;;;;2.53;100.00;103510.06;4408851;32;20654;-75
2022/01/12 12:43:24;;;;;;;3.72;3.42;;;;;;;1.65;100.00;103339.34;4424134;32;20096;-73
2022/01/12 12:45:52;;;;;;;2.90;2.80;;;;;;;2.70;100.00;103500.13;4409451;32;20064;-75
2022/01/12 12:48:22;;;;;;;3.05;2.95;;;;;;;2.65;100.00;103518.16;4418083;32;20074;-76
2022/01/12 12:50:57;;;;;;;7.28;4.15;;;;;;;2.63;100.00;103501.69;4423004;32;20079;-72
2022/01/12 12:53:29;;;;;;;3.20;3.10;;;;;;;2.48;100.00;103534.97;4428491;32;20082;-76
2022/01/12 12:55:55;;;;;;;;;;;;;;;2.45;100.00;103532.31;4410834;32;20060;-73
2022/01/12 12:58:20;;;;;;;2.95;2.85;;;;;;;2.42;100.00;103521.84;4428874;32;20425;-73
2022/01/12 13:00:45;;;;;;;2.75;2.65;;;;;;;2.51;100.00;103525.56;4420775;32;20068;-73
2022/01/12 13:03:11;;;;;;;3.15;3.05;;;;;;;2.48;100.00;103519.44;4410340;32;20075;-73
2022/01/12 13:05:41;;;;;;;2.72;2.62;;;;;;;1.97;100.00;103454.16;4419297;32;20405;-73
2022/01/12 13:08:06;;;;;;;3.37;3.17;;;;;;;0.83;100.00;103273.19;4410261;32;20087;-73
2022/01/12 13:10:32;;;;;;;4.65;4.45;;;;;;;2.15;100.00;103499.53;4408065;32;20164;-73
2022/01/12 13:13:02;;;;;;;13.98;3.33;;;;;;;2.49;100.00;103518.59;4412699;32;20065;-73